createdAt,value
2019-03-23T00:01:46.901Z,16.47
2019-03-23T00:04:18.856Z,16.47
2019-03-23T00:06:52.689Z,17.03
2019-03-23T00:09:25.698Z,16.17
2019-03-23T00:11:58.184Z,16.70
2019-03-23T00:14:29.793Z,16.53
2019-03-23T00:17:05.350Z,16.93
2019-03-23T00:19:37.550Z,17.47
2019-03-23T00:22:09.078Z,16.70
2019-03-23T00:24:40.543Z,16.23
2019-03-23T00:27:12.344Z,16.33
2019-03-23T00:29:45.118Z,17.17
2019-03-23T00:32:16.615Z,16.77
2019-03-23T00:34:48.580Z,16.50
2019-03-23T00:37:20.215Z,18.43
2019-03-23T00:40:12.738Z,17.97
2019-03-23T00:42:47.744Z,17.87
2019-03-23T00:45:19.288Z,18.13
2019-03-23T00:47:51.485Z,16.93
2019-03-23T00:50:22.934Z,17.73
2019-03-23T00:52:54.631Z,18.67
2019-03-23T00:55:26.380Z,16.13
2019-03-23T00:57:58.850Z,18.13
2019-03-23T01:00:30.372Z,17.77
2019-03-23T01:03:02.114Z,16.33
2019-03-23T01:05:34.230Z,15.50
2019-03-23T01:08:06.016Z,16.17
2019-03-23T01:10:47.628Z,17.13
2019-03-23T01:13:19.365Z,17.03
2019-03-23T01:15:51.964Z,19.20
2019-03-23T01:18:23.545Z,16.63
2019-03-23T01:20:55.374Z,17.33
2019-03-23T01:23:27.153Z,18.53
2019-03-23T01:25:58.607Z,16.70
2019-03-23T01:28:30.016Z,18.00
2019-03-23T01:31:01.903Z,16.87
2019-03-23T01:33:33.348Z,16.93
2019-03-23T01:36:04.799Z,17.90
2019-03-23T01:38:36.518Z,17.03
2019-03-23T01:41:08.010Z,18.00
2019-03-23T01:43:39.451Z,17.77
2019-03-23T01:46:10.648Z,17.47
2019-03-23T01:48:42.719Z,16.57
2019-03-23T01:51:13.843Z,16.73
2019-03-23T01:53:45.671Z,17.07
2019-03-23T01:56:17.418Z,17.43
2019-03-23T01:58:48.980Z,17.07
2019-03-23T02:01:20.081Z,17.37
2019-03-23T02:03:51.874Z,17.97
2019-03-23T02:06:24.423Z,17.33
2019-03-23T02:09:04.323Z,19.33
2019-03-23T02:11:36.155Z,17.27
2019-03-23T02:14:08.180Z,18.90
2019-03-23T02:16:39.607Z,17.80
2019-03-23T02:19:11.018Z,18.83
2019-03-23T02:21:42.811Z,18.77
2019-03-23T02:24:14.321Z,18.43
2019-03-23T02:26:45.784Z,18.47
2019-03-23T02:29:17.250Z,18.23
2019-03-23T02:31:49.204Z,18.90
2019-03-23T02:34:21.676Z,18.90
2019-03-23T02:36:53.534Z,20.33
2019-03-23T02:39:25.444Z,20.93
2019-03-23T02:41:56.851Z,20.60
2019-03-23T02:44:28.511Z,20.17
2019-03-23T02:47:00.679Z,20.67
2019-03-23T02:49:32.632Z,22.63
2019-03-23T02:52:04.079Z,22.17
2019-03-23T02:54:35.661Z,23.23
2019-03-23T02:57:08.076Z,23.97
2019-03-23T02:59:40.320Z,21.53
2019-03-23T03:02:12.751Z,22.50
2019-03-23T03:04:44.913Z,23.47
2019-03-23T03:07:17.552Z,22.40
2019-03-23T03:09:50.676Z,20.53
2019-03-23T03:12:22.652Z,22.33
2019-03-23T03:14:54.523Z,22.23
2019-03-23T03:17:28.433Z,22.00
2019-03-23T03:20:00.247Z,21.57
2019-03-23T03:22:31.618Z,20.20
2019-03-23T03:25:03.088Z,22.07
2019-03-23T03:27:34.829Z,21.10
2019-03-23T03:30:07.098Z,20.43
2019-03-23T03:32:39.229Z,19.90
2019-03-23T03:35:11.386Z,19.43
2019-03-23T03:37:55.830Z,19.93
2019-03-23T03:40:16.699Z,19.57
2019-03-23T03:42:48.657Z,21.53
2019-03-23T03:45:26.339Z,21.27
2019-03-23T03:47:58.133Z,22.47
2019-03-23T03:50:30.682Z,20.67
2019-03-23T03:53:02.541Z,21.50
2019-03-23T03:55:36.769Z,21.03
2019-03-23T03:58:07.878Z,20.67
2019-03-23T04:00:39.782Z,19.93
2019-03-23T04:03:11.191Z,20.20
2019-03-23T04:05:43.741Z,20.33
2019-03-23T04:08:15.557Z,20.60
2019-03-23T04:10:59.584Z,20.77
2019-03-23T04:13:31.457Z,19.50
2019-03-23T04:16:03.205Z,21.90
2019-03-23T04:18:34.971Z,20.47
2019-03-23T04:21:06.801Z,20.93
2019-03-23T04:23:39.390Z,20.70
2019-03-23T04:26:11.179Z,20.20
2019-03-23T04:28:42.974Z,21.57
2019-03-23T04:31:14.893Z,20.60
2019-03-23T04:33:47.068Z,21.10
2019-03-23T04:36:18.988Z,22.20
2019-03-23T04:38:50.465Z,23.37
2019-03-23T04:41:22.461Z,21.80
2019-03-23T04:43:54.387Z,21.47
2019-03-23T04:46:48.895Z,22.77
2019-03-23T04:49:20.582Z,21.00
2019-03-23T04:51:54.051Z,20.57
2019-03-23T04:54:25.205Z,20.97
2019-03-23T04:56:57.198Z,20.07
2019-03-23T04:59:28.982Z,19.80
2019-03-23T05:02:01.132Z,21.60
2019-03-23T05:04:33.434Z,21.57
2019-03-23T05:07:04.900Z,21.00
2019-03-23T05:09:36.745Z,20.57
2019-03-23T05:12:08.596Z,21.67
2019-03-23T05:14:40.354Z,21.33
2019-03-23T05:17:12.137Z,19.03
2019-03-23T05:19:43.984Z,19.37
2019-03-23T05:22:15.423Z,20.07
2019-03-23T05:24:47.538Z,19.90
2019-03-23T05:27:19.355Z,20.67
2019-03-23T05:29:51.519Z,22.17
2019-03-23T05:32:32.097Z,19.53
2019-03-23T05:35:03.566Z,22.30
2019-03-23T05:37:35.314Z,22.73
2019-03-23T05:40:07.153Z,22.07
2019-03-23T05:42:40.240Z,22.17
2019-03-23T05:45:11.906Z,21.90
2019-03-23T05:47:44.394Z,20.60
2019-03-23T05:50:16.348Z,20.50
2019-03-23T05:52:48.099Z,20.43
2019-03-23T05:55:19.962Z,20.70
2019-03-23T05:57:52.538Z,22.03
2019-03-23T06:00:30.054Z,20.53
2019-03-23T06:03:02.222Z,19.50
2019-03-23T06:05:34.774Z,19.47
2019-03-23T06:08:06.243Z,19.00
2019-03-23T06:10:37.989Z,19.53
2019-03-23T06:13:09.816Z,18.97
2019-03-23T06:15:42.122Z,20.17
2019-03-23T06:18:13.969Z,19.70
2019-03-23T06:20:45.724Z,20.80
2019-03-23T06:23:17.503Z,20.27
2019-03-23T06:25:48.933Z,21.27
2019-03-23T06:28:20.917Z,19.53
2019-03-23T06:31:04.836Z,21.63
2019-03-23T06:33:36.401Z,23.03
2019-03-23T06:36:08.545Z,22.90
2019-03-23T06:38:40.492Z,20.77
2019-03-23T06:41:13.410Z,21.73
2019-03-23T06:43:45.984Z,21.00
2019-03-23T06:46:18.246Z,21.80
2019-03-23T06:48:50.083Z,22.70
2019-03-23T06:51:21.583Z,23.43
2019-03-23T06:53:55.368Z,24.20
2019-03-23T06:56:27.476Z,22.10
2019-03-23T06:58:58.979Z,23.43
2019-03-23T07:01:30.434Z,22.53
2019-03-23T07:04:02.351Z,23.60
2019-03-23T07:06:33.575Z,24.53
2019-03-23T07:09:16.129Z,21.60
2019-03-23T07:11:42.295Z,22.33
2019-03-23T07:14:14.723Z,21.63
2019-03-23T07:16:47.082Z,23.27
2019-03-23T07:19:18.899Z,21.63
2019-03-23T07:21:50.389Z,22.33
2019-03-23T07:24:21.783Z,24.60
2019-03-23T07:26:53.501Z,24.93
2019-03-23T07:29:24.916Z,24.00
2019-03-23T07:32:05.432Z,23.13
2019-03-23T07:34:29.535Z,22.43
2019-03-23T07:37:01.294Z,22.37
2019-03-23T07:39:33.382Z,23.10
2019-03-23T07:42:04.533Z,23.23
2019-03-23T07:44:36.044Z,22.27
2019-03-23T07:47:07.819Z,22.43
2019-03-23T07:49:39.258Z,22.13
2019-03-23T07:52:10.734Z,23.43
2019-03-23T07:54:42.682Z,23.63
2019-03-23T07:57:14.161Z,22.63
2019-03-23T07:59:45.717Z,23.93
2019-03-23T08:02:17.947Z,24.93
2019-03-23T08:04:51.038Z,24.30
2019-03-23T08:07:22.395Z,25.17
2019-03-23T08:09:54.469Z,23.63
2019-03-23T08:12:26.452Z,23.80
2019-03-23T08:14:58.500Z,22.63
2019-03-23T08:17:29.942Z,24.17
2019-03-23T08:20:02.361Z,28.97
2019-03-23T08:22:34.474Z,30.17
2019-03-23T08:25:06.527Z,26.23
2019-03-23T08:27:37.919Z,27.70
2019-03-23T08:30:09.648Z,25.47
2019-03-23T08:32:42.143Z,25.20
2019-03-23T08:35:13.305Z,24.70
2019-03-23T08:37:46.895Z,24.07
2019-03-23T08:40:18.042Z,23.53
2019-03-23T08:42:51.182Z,23.77
2019-03-23T08:45:22.972Z,24.30
2019-03-23T08:47:54.833Z,24.27
2019-03-23T08:50:26.647Z,24.47
2019-03-23T08:52:57.838Z,24.83
2019-03-23T08:55:29.754Z,25.13
2019-03-23T08:58:01.950Z,24.17
2019-03-23T09:00:34.167Z,24.37
2019-03-23T09:03:05.970Z,25.07
2019-03-23T09:05:37.421Z,24.87
2019-03-23T09:08:09.416Z,25.83
2019-03-23T09:10:41.735Z,24.93
2019-03-23T09:13:14.633Z,23.67
2019-03-23T09:15:47.128Z,23.97
2019-03-23T09:18:18.838Z,23.80
2019-03-23T09:20:52.687Z,24.63
2019-03-23T09:23:24.481Z,22.97
2019-03-23T09:25:56.512Z,24.07
2019-03-23T09:28:28.546Z,24.40
2019-03-23T09:31:01.463Z,21.90
2019-03-23T09:33:33.397Z,23.77
2019-03-23T09:36:05.278Z,25.17
2019-03-23T09:38:37.593Z,24.10
2019-03-23T09:41:11.957Z,25.00
2019-03-23T09:43:43.871Z,24.40
2019-03-23T09:46:15.374Z,26.67
2019-03-23T09:48:46.860Z,25.23
2019-03-23T09:51:18.677Z,24.75
2019-03-23T09:53:51.678Z,23.93
2019-03-23T09:56:23.971Z,24.30
2019-03-23T09:58:56.428Z,21.03
2019-03-23T10:01:28.587Z,20.30
2019-03-23T10:04:00.451Z,19.85
2019-03-23T10:06:34.765Z,20.92
2019-03-23T10:09:07.903Z,16.45
2019-03-23T10:11:39.077Z,17.82
2019-03-23T10:14:10.871Z,15.60
2019-03-23T10:16:42.713Z,16.05
2019-03-23T10:19:31.368Z,16.90
2019-03-23T10:22:03.156Z,18.32
2019-03-23T10:24:35.287Z,20.32
2019-03-23T10:27:07.213Z,18.35
2019-03-23T10:29:38.637Z,18.80
2019-03-23T10:32:10.050Z,17.10
2019-03-23T10:34:42.189Z,14.28
2019-03-23T10:37:13.907Z,12.98
2019-03-23T10:39:46.424Z,13.98
2019-03-23T10:42:18.728Z,14.38
2019-03-23T10:44:52.097Z,14.78
2019-03-23T10:47:23.912Z,14.40
2019-03-23T10:49:55.852Z,13.95
2019-03-23T10:52:28.376Z,15.13
2019-03-23T10:55:00.119Z,14.60
2019-03-23T10:57:31.947Z,14.23
2019-03-23T11:00:04.501Z,14.40
2019-03-23T11:02:37.149Z,15.85
2019-03-23T11:05:09.661Z,15.55
2019-03-23T11:07:42.230Z,14.65
2019-03-23T11:10:14.433Z,16.73
2019-03-23T11:12:46.673Z,16.12
2019-03-23T11:15:18.129Z,16.82
2019-03-23T11:17:50.153Z,16.85
2019-03-23T11:20:21.961Z,16.30
2019-03-23T11:22:53.556Z,14.98
